Time;durP1;ratioP1;P1;durP2;ratioP2;P2;SDS_P1;SDS_P2;PMS_P1;PMS_P2;Temp;Humidity;BMP_temperature;BMP_pressure;BME280_temperature;BME280_humidity;BME280_pressure;Samples;Min_cycle;Max_cycle;Signal;HPM_P1;HPM_P2
2021/11/12 00:02:47;;;;;;;22.10;17.17;;;;;;;-0.45;100.00;98650.03;5024636;28;20226;-73
2021/11/12 00:13:33;;;;;;;15.80;14.27;;;;;;;-0.51;100.00;98639.91;5052084;28;20206;-73
2021/11/12 00:16:05;;;;;;;16.33;14.63;;;;;;;-0.70;100.00;98640.00;5047571;28;20207;-74
2021/11/12 00:18:35;;;;;;;16.80;12.97;;;;;;;-0.65;100.00;98645.81;5043687;28;20649;-73
2021/11/12 00:21:04;;;;;;;16.93;15.10;;;;;;;-0.54;100.00;98642.69;5031791;28;20850;-75
2021/11/12 00:23:35;;;;;;;15.90;14.23;;;;;;;-0.75;100.00;98643.69;5053226;28;20202;-73
2021/11/12 00:26:04;;;;;;;20.13;15.17;;;;;;;-0.69;100.00;98650.31;5040851;28;20447;-75
2021/11/12 00:28:36;;;;;;;17.87;14.17;;;;;;;-0.67;100.00;98639.84;5050969;28;20203;-73
2021/11/12 00:31:13;;;;;;;17.80;14.80;;;;;;;-0.73;100.00;98641.84;5054164;28;20735;-72
2021/11/12 00:33:55;;;;;;;18.77;14.23;;;;;;;-0.62;100.00;98641.28;5052676;28;20203;-73
2021/11/12 00:36:36;;;;;;;19.77;14.83;;;;;;;-0.60;100.00;98634.25;5013721;28;20225;-74
2021/11/12 00:39:10;;;;;;;20.07;15.57;;;;;;;-0.43;100.00;98640.38;5046435;28;20229;-73
2021/11/12 00:41:40;;;;;;;18.07;14.27;;;;;;;-0.56;100.00;98639.31;5051738;28;20287;-73
2021/11/12 00:44:18;;;;;;;18.87;14.27;;;;;;;-0.49;100.00;98638.91;5047821;28;20202;-74
2021/11/12 00:46:51;;;;;;;16.20;14.43;;;;;;;-0.43;100.00;98637.75;5055128;28;20203;-73
2021/11/12 00:49:22;;;;;;;21.87;15.10;;;;;;;-0.43;100.00;98642.97;5058326;28;20210;-75
2021/11/12 00:51:51;;;;;;;20.70;15.00;;;;;;;-0.45;100.00;98642.22;5018138;28;20223;-74
2021/11/12 00:54:20;;;;;;;24.03;15.67;;;;;;;-0.44;100.00;98636.09;5055171;28;20211;-75
2021/11/12 00:56:50;;;;;;;21.50;15.97;;;;;;;-0.39;100.00;98634.06;5056160;28;20242;-72
2021/11/12 00:59:19;;;;;;;19.37;16.27;;;;;;;-0.37;100.00;98642.66;5041759;28;20211;-76
2021/11/12 01:01:49;;;;;;;20.10;15.47;;;;;;;-0.30;100.00;98643.19;5054195;28;20246;-73
2021/11/12 01:04:19;;;;;;;18.70;14.53;;;;;;;-0.32;100.00;98637.22;5056806;28;20241;-74
2021/11/12 01:06:48;;;;;;;18.30;15.53;;;;;;;-0.27;100.00;98637.81;5020460;28;20223;-72
2021/11/12 01:09:17;;;;;;;18.33;16.40;;;;;;;-0.24;100.00;98628.97;5053579;28;20645;-74
2021/11/12 01:11:47;;;;;;;23.00;16.43;;;;;;;-0.16;100.00;98630.28;5055129;28;20246;-72
2021/11/12 01:14:18;;;;;;;17.60;14.40;;;;;;;-0.16;100.00;98629.44;5045454;28;20215;-75
2021/11/12 01:16:46;;;;;;;16.57;14.60;;;;;;;-0.09;100.00;98617.78;5053531;28;20309;-72
2021/11/12 01:19:16;;;;;;;20.60;15.57;;;;;;;-0.09;100.00;98616.91;5057457;28;20286;-75
2021/11/12 01:21:46;;;;;;;17.80;15.50;;;;;;;-0.03;100.00;98616.59;5028298;28;20313;-72
2021/11/12 01:24:15;;;;;;;21.00;16.10;;;;;;;-0.03;100.00;98622.66;5054568;28;20493;-74
2021/11/12 01:26:43;;;;;;;21.53;14.73;;;;;;;0.05;100.00;98614.44;5055556;28;20242;-72
2021/11/12 01:29:12;;;;;;;19.87;14.37;;;;;;;0.09;100.00;98617.72;5047369;28;20570;-74
2021/11/12 01:31:41;;;;;;;20.13;14.60;;;;;;;0.12;100.00;98614.94;5060875;28;20465;-73
2021/11/12 01:34:11;;;;;;;21.93;15.67;;;;;;;0.17;100.00;98615.53;5059227;28;20203;-73
2021/11/12 01:36:43;;;;;;;16.93;14.43;;;;;;;0.19;100.00;98603.28;5054259;28;20579;-72
2021/11/12 01:39:13;;;;;;;19.73;15.43;;;;;;;0.14;100.00;98608.72;5023791;28;20203;-74
2021/11/12 01:41:46;;;;;;;19.47;14.47;;;;;;;0.27;100.00;98593.25;5049773;28;20595;-72
2021/11/12 01:44:14;;;;;;;23.23;14.10;;;;;;;0.23;100.00;98593.50;5044745;28;20337;-74
2021/11/12 01:46:53;;;;;;;18.57;15.60;;;;;;;0.18;100.00;98596.34;5058777;28;20206;-72
2021/11/12 01:49:25;;;;;;;16.53;14.23;;;;;;;0.16;100.00;98608.63;5056478;28;20213;-74
2021/11/12 01:52:06;;;;;;;17.10;15.10;;;;;;;0.15;100.00;98601.72;5050044;28;20224;-74
2021/11/12 01:57:27;;;;;;;15.73;13.60;;;;;;;0.16;100.00;98590.38;5056416;28;20191;-75
2021/11/12 01:59:56;;;;;;;15.33;13.73;;;;;;;0.23;100.00;98596.97;5040257;28;20208;-74
2021/11/12 02:02:26;;;;;;;18.53;15.33;;;;;;;0.14;100.00;98593.09;5058562;28;20238;-73
2021/11/12 02:04:55;;;;;;;15.60;13.47;;;;;;;0.16;100.00;98594.75;5051125;28;20487;-75
2021/11/12 02:07:24;;;;;;;17.53;15.17;;;;;;;0.25;100.00;98599.47;5052739;28;20210;-71
2021/11/12 02:09:52;;;;;;;16.63;14.83;;;;;;;0.18;100.00;98598.94;4988291;28;21575;-74
2021/11/12 02:12:25;;;;;;;15.87;14.17;;;;;;;0.18;100.00;98596.34;5041537;28;20214;-75
2021/11/12 02:14:55;;;;;;;17.50;13.13;;;;;;;0.12;100.00;98604.50;5053933;28;20486;-74
2021/11/12 02:17:25;;;;;;;15.47;13.97;;;;;;;0.14;100.00;98595.69;5038792;28;20235;-74
2021/11/12 02:19:57;;;;;;;15.37;13.67;;;;;;;0.21;100.00;98597.97;5053727;28;20578;-74
2021/11/12 02:22:30;;;;;;;14.77;12.60;;;;;;;0.22;100.00;98591.81;5044722;28;20223;-73
2021/11/12 02:25:03;;;;;;;18.03;13.60;;;;;;;0.28;100.00;98589.72;5054717;28;20215;-74
2021/11/12 02:27:37;;;;;;;15.40;12.93;;;;;;;0.19;100.00;98582.41;5021327;28;20214;-73
2021/11/12 02:30:06;;;;;;;16.53;13.67;;;;;;;0.20;100.00;98581.50;5055128;28;20234;-74
2021/11/12 02:32:34;;;;;;;16.30;14.60;;;;;;;0.23;100.00;98583.94;5041238;28;20203;-73
2021/11/12 02:35:04;;;;;;;16.00;14.07;;;;;;;0.29;100.00;98574.91;5051535;28;20316;-75
2021/11/12 02:37:34;;;;;;;15.67;13.90;;;;;;;0.26;100.00;98569.88;5043095;28;20214;-73
2021/11/12 02:40:03;;;;;;;18.83;15.30;;;;;;;0.31;100.00;98564.41;5054797;28;20415;-74
2021/11/12 02:42:31;;;;;;;18.40;15.57;;;;;;;0.23;100.00;98560.47;5024797;28;20235;-73
2021/11/12 02:44:59;;;;;;;17.07;14.53;;;;;;;0.25;100.00;98571.66;5056072;28;20202;-75
2021/11/12 02:47:27;;;;;;;17.27;14.03;;;;;;;0.27;100.00;98574.16;5040575;28;20642;-74
2021/11/12 02:49:57;;;;;;;16.80;13.63;;;;;;;0.29;100.00;98574.91;5056209;28;20214;-73
2021/11/12 02:52:25;;;;;;;16.30;14.60;;;;;;;0.30;100.00;98568.78;5043221;28;20203;-74
2021/11/12 02:54:55;;;;;;;18.23;14.63;;;;;;;0.34;100.00;98572.06;5054051;28;20298;-75
2021/11/12 02:57:26;;;;;;;16.30;13.97;;;;;;;0.35;100.00;98571.97;5020103;28;20456;-75
2021/11/12 02:59:55;;;;;;;18.17;14.83;;;;;;;0.33;100.00;98570.38;5053520;28;20309;-75
2021/11/12 03:02:23;;;;;;;21.80;16.00;;;;;;;0.33;100.00;98575.59;5050262;28;20245;-75
2021/11/12 03:04:51;;;;;;;24.10;16.50;;;;;;;0.34;100.00;98572.88;5043865;28;20211;-74
2021/11/12 03:07:19;;;;;;;19.07;16.03;;;;;;;0.39;100.00;98568.28;5050293;28;20207;-73
2021/11/12 03:09:47;;;;;;;19.50;15.43;;;;;;;0.36;100.00;98565.00;5043381;28;20211;-75
2021/11/12 03:12:18;;;;;;;20.50;15.73;;;;;;;0.35;100.00;98564.13;5019389;28;20207;-73
2021/11/12 03:14:46;;;;;;;17.83;15.03;;;;;;;0.34;100.00;98569.44;5054480;28;20218;-75
2021/11/12 03:17:15;;;;;;;18.47;15.70;;;;;;;0.31;100.00;98562.63;5052753;28;20203;-73
2021/11/12 03:19:44;;;;;;;17.03;15.23;;;;;;;0.28;100.00;98566.25;5044988;28;20207;-75
2021/11/12 03:22:17;;;;;;;19.13;15.23;;;;;;;0.32;100.00;98558.28;5052532;28;20219;-73
2021/11/12 03:24:48;;;;;;;19.53;15.33;;;;;;;0.32;100.00;98560.88;5044525;28;20743;-75
2021/11/12 03:27:24;;;;;;;19.50;15.60;;;;;;;0.34;100.00;98552.03;5027328;28;20214;-73
2021/11/12 04:00:34;;;;;;;16.27;14.13;;;;;;;0.39;100.00;98554.38;5050275;28;20388;-75
2021/11/12 04:03:10;;;;;;;19.10;14.80;;;;;;;0.36;100.00;98559.78;5044605;28;20222;-74
2021/11/12 04:19:49;;;;;;;16.03;13.00;;;;;;;0.35;100.00;98558.09;5003402;28;20206;-72
2021/11/12 04:30:34;;;;;;;15.10;13.07;;;;;;;0.40;100.00;98553.47;5054780;28;20237;-72
2021/11/12 04:31:14;;;;;;;17.07;13.73;;;;;;;0.42;100.00;98554.22;5034789;28;20265;-74
2021/11/12 05:33:35;;;;;;;13.67;12.23;;;;;;;0.74;100.00;98548.09;5042419;28;20289;-72
2021/11/12 05:43:39;;;;;;;13.13;11.83;;;;;;;0.55;100.00;98543.94;5020150;28;20226;-76
2021/11/12 05:51:55;;;;;;;15.00;12.87;;;;;;;0.65;100.00;98542.47;5024066;28;20568;-75
2021/11/12 05:57:16;;;;;;;14.00;11.73;;;;;;;0.64;100.00;98538.19;5052464;28;20219;-72
2021/11/12 05:59:45;;;;;;;14.63;12.77;;;;;;;0.60;100.00;98536.69;5042442;28;20211;-73
2021/11/12 06:02:13;;;;;;;12.90;11.53;;;;;;;0.74;100.00;98535.91;5048158;28;20203;-72
2021/11/12 06:04:41;;;;;;;12.67;11.37;;;;;;;0.67;100.00;98537.19;5058450;28;20206;-74
2021/11/12 06:07:09;;;;;;;13.73;11.57;;;;;;;0.77;100.00;98537.50;5023799;28;20218;-72
2021/11/12 06:09:37;;;;;;;15.67;13.53;;;;;;;0.61;100.00;98540.97;5051551;28;20424;-76
2021/11/12 06:12:11;;;;;;;13.63;12.37;;;;;;;0.79;100.00;98540.88;5054999;28;20294;-74
2021/11/12 06:14:41;;;;;;;14.97;13.43;;;;;;;0.61;100.00;98533.16;5039557;28;20819;-76
2021/11/12 06:17:09;;;;;;;15.27;13.67;;;;;;;0.68;100.00;98526.66;5053447;28;20525;-72
2021/11/12 06:19:37;;;;;;;16.03;14.37;;;;;;;0.67;100.00;98535.41;5055183;28;20740;-73
2021/11/12 06:22:06;;;;;;;16.20;13.03;;;;;;;0.71;100.00;98531.69;5021611;28;20234;-71
2021/11/12 06:24:34;;;;;;;13.47;12.17;;;;;;;0.64;100.00;98532.16;5019248;28;20218;-72
2021/11/12 06:27:03;;;;;;;14.73;12.30;;;;;;;0.61;100.00;98532.31;5052875;28;20214;-72
2021/11/12 06:29:31;;;;;;;13.93;11.27;;;;;;;0.64;100.00;98532.16;5053894;28;20583;-73
2021/11/12 06:32:01;;;;;;;13.37;11.97;;;;;;;0.64;100.00;98530.34;5034026;28;20227;-73
2021/11/12 06:34:29;;;;;;;15.33;13.60;;;;;;;0.72;100.00;98538.59;5044382;28;20214;-74
2021/11/12 06:36:57;;;;;;;13.17;11.77;;;;;;;0.82;100.00;98533.69;5041727;28;20215;-74
2021/11/12 06:39:25;;;;;;;14.50;12.50;;;;;;;0.74;100.00;98538.50;5042605;28;20215;-76
2021/11/12 06:41:56;;;;;;;12.17;11.00;;;;;;;0.89;100.00;98528.94;5020755;28;20336;-74
2021/11/12 06:49:56;;;;;;;11.73;10.67;;;;;;;0.79;100.00;98517.38;5049458;28;20208;-73
2021/11/12 06:52:27;;;;;;;12.77;10.07;;;;;;;0.82;100.00;98514.59;5055985;28;20207;-75
2021/11/12 06:55:00;;;;;;;11.93;10.27;;;;;;;0.72;100.00;98517.72;5041161;28;20217;-73
2021/11/12 06:57:28;;;;;;;11.93;10.47;;;;;;;0.68;100.00;98518.81;5019226;28;20734;-72
2021/11/12 06:59:56;;;;;;;14.53;11.30;;;;;;;0.60;100.00;98523.66;5052962;28;20211;-74
2021/11/12 07:02:27;;;;;;;10.67;9.53;;;;;;;0.63;100.00;98514.81;5056045;28;20461;-76
2021/11/12 07:04:55;;;;;;;11.70;10.20;;;;;;;0.70;100.00;98526.56;5051463;28;20234;-74
2021/11/12 07:07:24;;;;;;;10.67;9.57;;;;;;;0.71;100.00;98529.06;5055452;28;20218;-74
2021/11/12 07:09:52;;;;;;;10.20;9.20;;;;;;;0.65;100.00;98533.81;5038218;28;20211;-75
2021/11/12 07:12:20;;;;;;;9.83;8.93;;;;;;;0.65;100.00;98539.03;5021941;28;20211;-74
2021/11/12 07:14:50;;;;;;;10.23;8.63;;;;;;;0.86;100.00;98532.56;5054694;28;20210;-76
2021/11/12 07:17:26;;;;;;;9.73;8.77;;;;;;;0.81;100.00;98531.19;5053896;28;20649;-76
2021/11/12 07:19:56;;;;;;;10.87;9.83;;;;;;;0.88;100.00;98536.84;5052085;28;20213;-75
2021/11/12 07:22:24;;;;;;;10.07;9.07;;;;;;;0.86;100.00;98539.56;5054717;28;20678;-75
2021/11/12 07:24:52;;;;;;;11.57;8.50;;;;;;;0.89;100.00;98539.38;5046581;28;20226;-74
2021/11/12 07:27:20;;;;;;;10.73;9.73;;;;;;;0.91;100.00;98534.06;5046745;28;20208;-74
2021/11/12 07:30:12;;;;;;;10.10;9.03;;;;;;;0.98;100.00;98530.19;5026377;28;20583;-76
2021/11/12 07:32:42;;;;;;;9.10;8.20;;;;;;;0.88;100.00;98531.63;5057923;28;20207;-76
2021/11/12 07:35:11;;;;;;;8.37;7.57;;;;;;;0.91;100.00;98526.25;5047872;28;20198;-75
2021/11/12 07:37:40;;;;;;;10.50;8.50;;;;;;;0.89;100.00;98528.09;5054221;28;20207;-74
2021/11/12 07:40:10;;;;;;;10.10;8.50;;;;;;;0.82;100.00;98532.84;5039413;28;20685;-76
2021/11/12 07:42:52;;;;;;;8.33;7.63;;;;;;;0.86;100.00;98537.78;5056391;28;20214;-77
2021/11/12 07:45:30;;;;;;;10.03;8.67;;;;;;;1.00;100.00;98538.78;5045690;28;20222;-75
2021/11/12 07:48:00;;;;;;;10.37;8.50;;;;;;;0.90;100.00;98532.38;5052326;28;20289;-74
2021/11/12 07:50:29;;;;;;;9.67;8.63;;;;;;;0.82;100.00;98520.63;5055383;28;20233;-78
2021/11/12 07:52:59;;;;;;;8.87;7.97;;;;;;;0.81;100.00;98523.34;5052369;28;20230;-73
2021/11/12 07:55:27;;;;;;;10.17;9.17;;;;;;;0.90;100.00;98514.97;5052274;28;20211;-76
2021/11/12 07:57:56;;;;;;;10.00;8.53;;;;;;;0.91;100.00;98521.88;5039363;28;20833;-74
2021/11/12 08:00:24;;;;;;;9.67;8.67;;;;;;;0.96;100.00;98513.78;5027348;28;20231;-75
2021/11/12 08:02:54;;;;;;;10.87;9.17;;;;;;;1.03;100.00;98516.84;5051387;28;20214;-74
2021/11/12 08:05:26;;;;;;;10.27;8.23;;;;;;;1.08;100.00;98517.41;5051396;28;20229;-76
2021/11/12 08:07:59;;;;;;;8.87;7.97;;;;;;;1.12;100.00;98511.06;5051792;28;20592;-73
2021/11/12 08:10:30;;;;;;;8.60;7.70;;;;;;;1.15;100.00;98498.69;5054959;28;20222;-74
2021/11/12 08:13:02;;;;;;;8.27;7.50;;;;;;;1.01;100.00;98503.91;5038600;28;20211;-73
2021/11/12 08:15:38;;;;;;;8.53;7.80;;;;;;;1.07;100.00;98507.91;5019014;28;20318;-75
2021/11/12 08:20:55;;;;;;;8.63;7.83;;;;;;;1.26;100.00;98502.41;5049158;28;20223;-74
2021/11/12 08:23:51;;;;;;;10.03;8.97;;;;;;;1.27;100.00;98498.88;5054571;28;20234;-76
2021/11/12 08:26:27;;;;;;;10.67;8.20;;;;;;;1.19;100.00;98498.50;5052608;28;20199;-76
2021/11/12 08:31:51;;;;;;;8.33;7.50;;;;;;;1.27;100.00;98499.72;5018719;28;20234;-74
2021/11/12 08:34:23;;;;;;;9.20;7.30;;;;;;;1.28;100.00;98490.13;5013969;28;20716;-74
2021/11/12 08:36:59;;;;;;;7.90;7.10;;;;;;;1.38;100.00;98493.88;5055068;28;20627;-74
2021/11/12 08:39:41;;;;;;;8.90;8.00;;;;;;;1.24;100.00;98496.47;5049645;28;20427;-75
2021/11/12 08:42:12;;;;;;;8.80;7.90;;;;;;;1.32;100.00;98490.78;5050198;28;20225;-72
2021/11/12 08:44:43;;;;;;;8.33;7.53;;;;;;;1.49;100.00;98476.69;5053833;28;20214;-73
2021/11/12 08:47:15;;;;;;;8.80;7.47;;;;;;;1.41;100.00;98480.63;5029008;28;20283;-73
2021/11/12 08:49:44;;;;;;;9.10;8.20;;;;;;;1.46;100.00;98477.69;5053338;28;20199;-75
2021/11/12 08:52:16;;;;;;;8.63;7.83;;;;;;;1.47;100.00;98483.78;5049191;28;20203;-73
2021/11/12 08:54:46;;;;;;;8.67;7.87;;;;;;;1.43;100.00;98478.75;5053470;28;20207;-75
2021/11/12 08:57:16;;;;;;;8.43;7.63;;;;;;;1.46;100.00;98466.44;5047870;28;20203;-74
2021/11/12 08:59:45;;;;;;;9.57;8.47;;;;;;;1.54;100.00;98459.81;5052443;28;20238;-76
2021/11/12 09:02:18;;;;;;;9.90;7.57;;;;;;;1.55;100.00;98463.25;5050771;28;20203;-73
2021/11/12 09:04:50;;;;;;;8.67;7.73;;;;;;;1.51;100.00;98454.75;5025390;28;20399;-77
2021/11/12 09:07:19;;;;;;;8.90;8.10;;;;;;;1.45;100.00;98457.75;5052525;28;20687;-74
2021/11/12 09:09:49;;;;;;;11.57;8.43;;;;;;;1.44;100.00;98456.06;5058264;28;20218;-76
2021/11/12 09:12:17;;;;;;;9.60;8.47;;;;;;;1.57;100.00;98453.53;5054010;28;20203;-73
2021/11/12 09:14:47;;;;;;;8.43;7.63;;;;;;;1.67;100.00;98459.03;5059209;28;20721;-76
2021/11/12 09:17:16;;;;;;;9.63;8.63;;;;;;;1.60;100.00;98458.56;5052896;28;20250;-73
2021/11/12 09:19:49;;;;;;;15.30;9.03;;;;;;;1.63;100.00;98454.94;5027599;28;20218;-76
2021/11/12 09:22:20;;;;;;;10.27;8.57;;;;;;;1.68;100.00;98451.09;5053649;28;20415;-74
2021/11/12 09:24:51;;;;;;;8.10;7.30;;;;;;;1.69;100.00;98447.53;5055357;28;20235;-77
2021/11/12 09:27:20;;;;;;;7.83;7.17;;;;;;;1.73;100.00;98456.88;5053487;28;20218;-75
2021/11/12 09:29:48;;;;;;;9.97;7.27;;;;;;;1.74;100.00;98452.47;5053740;28;20223;-76
2021/11/12 09:32:16;;;;;;;8.33;7.63;;;;;;;1.73;100.00;98456.03;5050722;28;20203;-75
2021/11/12 09:34:44;;;;;;;8.27;7.47;;;;;;;1.77;100.00;98447.06;5053367;28;20686;-74
2021/11/12 09:37:19;;;;;;;9.50;8.50;;;;;;;1.76;100.00;98447.16;5023833;28;20295;-73
2021/11/12 09:39:53;;;;;;;9.43;7.87;;;;;;;1.87;100.00;98445.53;5056050;28;20214;-75
2021/11/12 09:42:23;;;;;;;8.60;7.80;;;;;;;1.84;100.00;98450.94;5053512;28;20414;-74
2021/11/12 09:44:51;;;;;;;8.70;7.90;;;;;;;1.81;100.00;98451.16;5056129;28;20563;-75
2021/11/12 09:47:24;;;;;;;8.30;7.50;;;;;;;1.85;100.00;98439.56;5053972;28;20203;-73
2021/11/12 09:49:52;;;;;;;10.00;8.43;;;;;;;1.87;100.00;98440.31;5057476;28;20203;-75
2021/11/12 09:52:20;;;;;;;7.87;7.03;;;;;;;1.87;100.00;98439.47;5027127;28;20741;-73
2021/11/12 09:54:49;;;;;;;8.43;7.57;;;;;;;1.95;100.00;98442.44;5055143;28;20207;-75
2021/11/12 09:57:18;;;;;;;8.17;7.33;;;;;;;2.00;100.00;98444.75;5053632;28;20210;-74
2021/11/12 09:59:47;;;;;;;8.17;7.37;;;;;;;1.96;100.00;98448.50;5054464;28;20234;-72
2021/11/12 10:02:16;;;;;;;8.03;7.23;;;;;;;2.05;100.00;98447.06;5052283;28;20218;-73
2021/11/12 10:04:45;;;;;;;8.07;7.23;;;;;;;2.20;100.00;98446.09;5056364;28;20238;-76
2021/11/12 10:07:16;;;;;;;8.53;7.60;;;;;;;2.22;100.00;98432.91;5025512;28;20562;-73
2021/11/12 10:09:48;;;;;;;8.43;7.63;;;;;;;2.13;100.00;98432.56;5055728;28;20210;-75
2021/11/12 10:12:18;;;;;;;9.00;7.07;;;;;;;2.24;100.00;98431.03;5053859;28;20207;-73
2021/11/12 10:14:50;;;;;;;7.83;7.03;;;;;;;2.26;100.00;98426.53;5056824;28;20670;-74
2021/11/12 10:17:20;;;;;;;7.60;6.87;;;;;;;2.09;100.00;98420.63;5053865;28;20207;-72
2021/11/12 10:19:54;;;;;;;8.77;7.50;;;;;;;2.21;100.00;98418.16;5051789;28;20215;-74
2021/11/12 10:22:24;;;;;;;7.87;7.17;;;;;;;2.25;100.00;98404.78;5052274;28;20289;-73
2021/11/12 10:24:54;;;;;;;7.83;7.13;;;;;;;2.24;100.00;98410.09;5028123;28;20235;-75
2021/11/12 10:27:25;;;;;;;8.43;7.07;;;;;;;2.37;100.00;98408.38;5047233;28;20200;-75
2021/11/12 10:29:56;;;;;;;7.77;7.00;;;;;;;2.37;100.00;98405.75;5055115;28;20693;-76
2021/11/12 10:32:25;;;;;;;7.67;6.73;;;;;;;2.51;100.00;98415.31;5052945;28;20407;-75
2021/11/12 10:34:56;;;;;;;7.83;7.13;;;;;;;2.43;100.00;98409.72;5055742;28;20754;-77
2021/11/12 10:37:25;;;;;;;8.10;7.27;;;;;;;2.37;100.00;98413.59;5052431;28;20206;-75
2021/11/12 10:39:57;;;;;;;7.57;6.87;;;;;;;2.30;100.00;98405.31;5021811;28;20215;-75
2021/11/12 10:42:28;;;;;;;7.37;6.77;;;;;;;2.35;100.00;98391.94;5053881;28;20211;-74
2021/11/12 10:44:59;;;;;;;7.57;6.93;;;;;;;2.43;100.00;98383.56;5044372;28;20623;-74
2021/11/12 10:47:29;;;;;;;15.50;7.30;;;;;;;2.60;100.00;98385.03;5050864;28;20202;-75
2021/11/12 10:49:59;;;;;;;8.20;6.83;;;;;;;2.49;100.00;98391.03;5045297;28;20545;-75
2021/11/12 10:52:28;;;;;;;7.70;7.00;;;;;;;2.60;100.00;98385.03;5052973;28;20202;-75
2021/11/12 10:55:03;;;;;;;7.97;6.17;;;;;;;2.70;100.00;98372.19;5055007;28;20203;-74
2021/11/12 10:57:35;;;;;;;10.37;9.37;;;;;;;2.59;100.00;98362.44;5020115;28;20302;-73
2021/11/12 11:00:18;;;;;;;8.20;7.50;;;;;;;2.56;100.00;98367.88;5052017;28;20227;-73
2021/11/12 11:02:48;;;;;;;7.57;6.87;;;;;;;2.43;100.00;98354.78;5051012;28;20242;-76
2021/11/12 11:05:19;;;;;;;7.87;7.10;;;;;;;2.40;100.00;98358.47;5042564;28;20321;-75
2021/11/12 11:07:49;;;;;;;8.23;7.17;;;;;;;2.38;100.00;98355.09;5046875;28;20200;-74
2021/11/12 11:10:32;;;;;;;8.50;7.67;;;;;;;2.41;100.00;98341.81;5053163;28;20219;-74
2021/11/12 11:13:08;;;;;;;6.77;6.17;;;;;;;2.45;100.00;98337.19;5054907;28;20268;-75
2021/11/12 11:15:37;;;;;;;8.97;8.00;;;;;;;2.59;100.00;98344.97;5052755;28;20666;-73
2021/11/12 11:18:24;;;;;;;8.03;7.30;;;;;;;2.58;100.00;98339.81;5054902;28;20211;-73
2021/11/12 11:21:00;;;;;;;8.10;7.30;;;;;;;2.57;100.00;98346.84;5042472;28;20448;-75
2021/11/12 11:23:30;;;;;;;8.80;7.67;;;;;;;2.59;100.00;98344.97;5047926;28;20206;-74
2021/11/12 11:26:03;;;;;;;8.43;7.63;;;;;;;2.65;100.00;98335.88;5049606;28;20598;-75
2021/11/12 11:28:34;;;;;;;9.23;8.03;;;;;;;2.56;100.00;98332.09;5020433;28;20222;-73
2021/11/12 11:31:03;;;;;;;9.40;8.47;;;;;;;2.66;100.00;98331.47;5051456;28;20219;-77
2021/11/12 11:33:31;;;;;;;8.00;7.17;;;;;;;2.83;100.00;98323.25;5049653;28;20686;-75
2021/11/12 11:35:59;;;;;;;8.03;7.33;;;;;;;2.81;100.00;98335.63;5044957;28;20199;-75
2021/11/12 11:38:29;;;;;;;8.73;7.93;;;;;;;2.97;100.00;98331.97;5048206;28;20209;-75
2021/11/12 11:40:58;;;;;;;8.07;7.27;;;;;;;2.86;100.00;98335.31;5053677;28;20233;-76
2021/11/12 11:43:26;;;;;;;9.43;8.43;;;;;;;2.88;100.00;98333.44;5022692;28;20226;-73
2021/11/12 11:45:56;;;;;;;9.60;8.70;;;;;;;2.88;100.00;98320.34;5052671;28;20909;-77
2021/11/12 11:48:25;;;;;;;10.23;9.17;;;;;;;2.99;100.00;98315.19;5050955;28;20957;-75
2021/11/12 11:51:19;;;;;;;9.67;8.73;;;;;;;2.97;100.00;98309.22;5044021;28;20399;-74
2021/11/12 11:53:48;;;;;;;9.10;8.20;;;;;;;2.99;100.00;98296.84;5051725;28;20494;-74
2021/11/12 11:56:20;;;;;;;8.50;7.80;;;;;;;3.06;100.00;98294.66;5054495;28;20206;-75
2021/11/12 11:58:49;;;;;;;9.17;8.23;;;;;;;3.16;100.00;98295.66;5019679;28;20214;-74
2021/11/12 12:01:42;;;;;;;9.90;8.90;;;;;;;3.27;100.00;98291.44;5052012;28;20219;-71
2021/11/12 12:04:37;;;;;;;9.87;8.07;;;;;;;3.21;100.00;98284.00;5054032;28;20256;-74
2021/11/12 12:07:30;;;;;;;10.80;8.83;;;;;;;3.20;100.00;98285.81;5040602;28;20227;-77
2021/11/12 12:10:24;;;;;;;10.30;8.40;;;;;;;3.08;100.00;98284.06;5054217;28;20694;-75
2021/11/12 12:12:54;;;;;;;9.67;8.77;;;;;;;3.00;100.00;98277.56;5021595;28;20226;-75
2021/11/12 12:15:39;;;;;;;10.93;9.03;;;;;;;3.05;100.00;98274.63;5051763;28;20631;-72
2021/11/12 12:18:20;;;;;;;10.60;8.83;;;;;;;3.45;100.00;98269.16;5053323;28;20210;-75
2021/11/12 12:21:23;;;;;;;10.00;8.87;;;;;;;3.37;100.00;98268.03;5052320;28;20446;-74
2021/11/12 13:22:41;;;;;;;11.53;10.27;;;;;;;3.15;100.00;98222.44;5053555;28;20672;-73
2021/11/12 13:25:12;;;;;;;12.73;10.70;;;;;;;3.16;100.00;98218.88;5048743;28;20416;-75
2021/11/12 13:27:41;;;;;;;11.77;10.57;;;;;;;3.16;100.00;98216.25;5057610;28;20403;-72
2021/11/12 13:30:09;;;;;;;12.37;11.07;;;;;;;3.21;100.00;98210.66;5055319;28;20223;-75
2021/11/12 13:32:43;;;;;;;12.93;10.67;;;;;;;3.26;100.00;98208.56;5054744;28;20666;-73
2021/11/12 13:35:28;;;;;;;13.60;12.07;;;;;;;3.12;100.00;98213.00;5050405;28;20210;-74
2021/11/12 13:37:56;;;;;;;15.70;13.20;;;;;;;3.23;100.00;98209.63;5054602;28;20227;-74
2021/11/12 13:40:30;;;;;;;14.17;12.30;;;;;;;3.21;100.00;98206.28;5045787;28;20235;-74
2021/11/12 13:42:58;;;;;;;15.67;12.87;;;;;;;3.19;100.00;98198.53;5052394;28;20666;-74
2021/11/12 13:45:27;;;;;;;15.27;12.47;;;;;;;3.29;100.00;98197.88;5055552;28;20656;-74
2021/11/12 13:48:09;;;;;;;17.73;14.83;;;;;;;3.29;100.00;98192.63;5019358;28;20585;-73
2021/11/12 13:50:39;;;;;;;16.03;12.43;;;;;;;3.35;100.00;98192.19;5054050;28;20237;-73
2021/11/12 13:53:07;;;;;;;15.40;12.90;;;;;;;3.36;100.00;98195.63;5054206;28;20837;-75
2021/11/12 13:55:38;;;;;;;15.63;13.10;;;;;;;3.34;100.00;98187.88;5045430;28;20218;-73
2021/11/12 13:58:06;;;;;;;14.60;12.57;;;;;;;3.35;100.00;98191.31;5054301;28;20335;-72
2021/11/12 14:00:36;;;;;;;14.80;12.47;;;;;;;3.32;100.00;98195.03;5054265;28;20227;-74
2021/11/12 14:03:06;;;;;;;13.93;12.30;;;;;;;3.19;100.00;98195.91;5053343;28;20301;-75
2021/11/12 14:05:35;;;;;;;16.47;13.90;;;;;;;3.23;100.00;98193.91;5023268;28;20226;-74
2021/11/12 14:08:07;;;;;;;16.03;12.57;;;;;;;3.24;100.00;98190.34;5050905;28;20218;-75
2021/11/12 14:10:39;;;;;;;15.27;12.50;;;;;;;3.08;100.00;98192.41;5043173;28;20730;-72
2021/11/12 14:13:08;;;;;;;15.70;12.83;;;;;;;3.12;100.00;98181.59;5050625;28;20199;-74
2021/11/12 14:15:42;;;;;;;15.87;13.20;;;;;;;3.14;100.00;98184.13;5055228;28;20277;-73
2021/11/12 14:18:27;;;;;;;18.53;14.00;;;;;;;3.11;100.00;98181.72;5055812;28;20480;-75
2021/11/12 14:21:07;;;;;;;16.00;12.83;;;;;;;3.06;100.00;98184.66;5015855;28;20231;-74
2021/11/12 14:23:51;;;;;;;18.10;13.47;;;;;;;3.08;100.00;98182.78;5053765;28;20207;-73
2021/11/12 14:26:28;;;;;;;19.03;13.97;;;;;;;3.08;100.00;98172.28;5042960;28;20203;-75
2021/11/12 14:29:01;;;;;;;17.27;13.83;;;;;;;3.12;100.00;98172.91;5053151;28;20210;-75
2021/11/12 14:34:28;;;;;;;17.77;14.70;;;;;;;3.10;100.00;98174.81;5031664;28;20221;-75
2021/11/12 14:36:59;;;;;;;19.50;15.37;;;;;;;3.13;100.00;98175.41;5015842;28;20210;-75
2021/11/12 14:39:45;;;;;;;16.47;14.40;;;;;;;3.16;100.00;98175.19;5055863;28;20705;-75
2021/11/12 14:45:02;;;;;;;21.53;14.27;;;;;;;3.13;100.00;98169.34;5052046;28;20608;-75
2021/11/12 14:47:41;;;;;;;17.33;13.47;;;;;;;3.14;100.00;98168.41;5056784;28;20234;-75
2021/11/12 14:50:25;;;;;;;17.57;14.67;;;;;;;3.12;100.00;98157.19;5052213;28;20458;-75
2021/11/12 14:53:05;;;;;;;16.73;14.23;;;;;;;3.10;100.00;98166.97;5016204;28;21520;-75
2021/11/12 14:55:34;;;;;;;20.93;15.17;;;;;;;3.07;100.00;98175.84;5015533;28;20323;-74
2021/11/12 14:58:03;;;;;;;23.03;16.73;;;;;;;3.07;100.00;98173.25;5037867;28;20206;-72
2021/11/12 15:00:33;;;;;;;18.03;15.60;;;;;;;3.11;100.00;98166.81;5055077;28;20249;-75
2021/11/12 15:03:01;;;;;;;20.13;17.00;;;;;;;3.08;100.00;98156.59;5039337;28;20817;-73
2021/11/12 15:05:29;;;;;;;20.37;16.23;;;;;;;3.18;100.00;98151.50;5053913;28;20222;-75
2021/11/12 15:08:04;;;;;;;18.70;14.70;;;;;;;3.17;100.00;98147.22;5055513;28;20223;-72
2021/11/12 15:10:33;;;;;;;17.87;14.60;;;;;;;3.25;100.00;98150.09;5019817;28;20325;-76
2021/11/12 15:13:03;;;;;;;18.90;16.07;;;;;;;3.13;100.00;98146.59;5051344;28;20203;-72
2021/11/12 15:15:31;;;;;;;21.73;15.60;;;;;;;3.16;100.00;98143.75;5054927;28;20203;-75
2021/11/12 15:18:03;;;;;;;22.10;18.10;;;;;;;3.11;100.00;98135.41;5041310;28;20210;-72